createdAt,value
2022-09-17T00:01:31.445Z,11.90
2022-09-17T00:04:04.114Z,11.90
2022-09-17T00:06:35.722Z,11.90
2022-09-17T00:09:05.101Z,11.90
2022-09-17T00:11:36.086Z,11.90
2022-09-17T00:14:05.695Z,11.80
2022-09-17T00:16:36.246Z,11.80
2022-09-17T00:19:06.020Z,11.80
2022-09-17T00:21:35.490Z,11.80
2022-09-17T00:24:05.251Z,11.70
2022-09-17T00:26:34.238Z,11.70
2022-09-17T00:29:02.850Z,11.70
2022-09-17T00:31:31.706Z,11.70
2022-09-17T00:34:01.243Z,11.60
2022-09-17T00:36:29.758Z,11.60
2022-09-17T00:39:01.214Z,11.60
2022-09-17T00:41:32.691Z,11.60
2022-09-17T00:44:02.176Z,11.60
2022-09-17T00:46:34.425Z,11.60
2022-09-17T00:49:06.844Z,11.60
2022-09-17T00:51:40.456Z,11.60
2022-09-17T00:54:11.748Z,11.50
2022-09-17T00:56:43.493Z,11.50
2022-09-17T00:59:11.889Z,11.50
2022-09-17T01:01:39.993Z,11.50
2022-09-17T01:04:08.104Z,11.50
2022-09-17T01:06:42.554Z,11.50
2022-09-17T01:09:26.201Z,11.50
2022-09-17T01:12:18.228Z,11.40
2022-09-17T01:15:01.409Z,11.40
2022-09-17T01:17:34.173Z,11.40
2022-09-17T01:20:49.688Z,11.40
2022-09-17T01:23:59.666Z,11.30
2022-09-17T01:26:57.196Z,11.30
2022-09-17T01:29:42.543Z,11.20
2022-09-17T01:32:18.558Z,11.20
2022-09-17T01:34:55.431Z,11.10
2022-09-17T01:37:32.964Z,11.10
2022-09-17T01:40:08.120Z,11.10
2022-09-17T01:42:45.316Z,11.10
2022-09-17T01:45:19.648Z,11.10
2022-09-17T01:47:54.866Z,11.10
2022-09-17T01:50:27.102Z,11.00
2022-09-17T01:52:57.658Z,11.10
2022-09-17T01:55:31.105Z,11.10
2022-09-17T01:58:02.892Z,11.10
2022-09-17T02:00:31.414Z,11.00
2022-09-17T02:03:05.140Z,11.00
2022-09-17T02:05:37.016Z,11.00
2022-09-17T02:08:09.470Z,11.00
2022-09-17T02:10:41.161Z,11.00
2022-09-17T02:13:14.560Z,11.00
2022-09-17T02:15:48.464Z,10.90
2022-09-17T02:18:25.365Z,10.90
2022-09-17T02:20:58.069Z,10.90
2022-09-17T02:23:30.913Z,10.90
2022-09-17T02:26:03.626Z,10.90
2022-09-17T02:28:40.021Z,10.90
2022-09-17T02:31:08.191Z,10.90
2022-09-17T02:33:40.758Z,10.90
2022-09-17T02:36:09.100Z,10.90
2022-09-17T02:38:37.626Z,10.90
2022-09-17T02:41:15.845Z,10.90
2022-09-17T02:43:52.653Z,10.90
2022-09-17T02:46:39.791Z,10.90
2022-09-17T02:49:32.156Z,10.90
2022-09-17T02:52:08.011Z,10.90
2022-09-17T02:54:42.863Z,10.90
2022-09-17T02:57:20.324Z,10.90
2022-09-17T02:59:54.869Z,10.90
2022-09-17T03:02:26.836Z,10.90
2022-09-17T03:04:57.092Z,10.90
2022-09-17T03:07:26.536Z,10.90
2022-09-17T03:09:54.494Z,10.90
2022-09-17T03:12:25.403Z,10.90
2022-09-17T03:14:53.398Z,10.90
2022-09-17T03:17:21.392Z,10.90
2022-09-17T03:19:49.356Z,10.90
2022-09-17T03:22:18.672Z,11.00
2022-09-17T03:24:46.680Z,11.00
2022-09-17T03:27:14.689Z,11.00
2022-09-17T03:29:42.777Z,11.00
2022-09-17T03:32:10.825Z,11.00
2022-09-17T03:34:38.815Z,11.00
2022-09-17T03:37:07.049Z,11.00
2022-09-17T03:39:36.440Z,11.00
2022-09-17T03:42:04.529Z,11.00
2022-09-17T03:44:32.517Z,10.90
2022-09-17T03:47:00.488Z,10.90
2022-09-17T03:49:28.479Z,11.00
2022-09-17T03:51:56.533Z,11.00
2022-09-17T03:54:25.745Z,10.90
2022-09-17T03:56:55.092Z,10.90
2022-09-17T03:59:23.241Z,10.90
2022-09-17T04:01:51.410Z,10.90
2022-09-17T04:04:19.441Z,10.90
2022-09-17T04:06:47.422Z,10.90
2022-09-17T04:09:15.400Z,10.90
2022-09-17T04:11:43.461Z,10.90
2022-09-17T04:14:12.869Z,10.90
2022-09-17T04:16:40.892Z,10.80
2022-09-17T04:19:09.061Z,10.80
2022-09-17T04:21:37.065Z,10.80
2022-09-17T04:24:05.347Z,10.90
2022-09-17T04:26:33.564Z,10.80
2022-09-17T04:29:01.681Z,10.80
2022-09-17T04:31:31.090Z,10.80
2022-09-17T04:33:59.200Z,10.80
2022-09-17T04:36:27.206Z,10.80
2022-09-17T04:38:55.254Z,10.80
2022-09-17T04:41:23.228Z,10.80
2022-09-17T04:43:51.495Z,10.80
2022-09-17T04:46:19.555Z,10.80
2022-09-17T04:48:48.965Z,10.80
2022-09-17T04:51:16.970Z,10.80
2022-09-17T04:53:45.598Z,10.80
2022-09-17T04:56:13.622Z,10.80
2022-09-17T04:58:41.733Z,10.80
2022-09-17T05:01:09.871Z,10.80
2022-09-17T05:03:37.921Z,10.80
2022-09-17T05:06:07.733Z,10.80
2022-09-17T05:08:35.749Z,10.80
2022-09-17T05:11:04.259Z,10.80
2022-09-17T05:13:32.273Z,10.90
2022-09-17T05:16:00.381Z,10.90
2022-09-17T05:18:28.471Z,11.00
2022-09-17T05:20:56.532Z,11.00
2022-09-17T05:23:25.931Z,11.00
2022-09-17T05:25:53.944Z,11.00
2022-09-17T05:28:21.959Z,11.10
2022-09-17T05:30:52.346Z,11.10
2022-09-17T05:33:20.494Z,11.20
2022-09-17T05:35:48.557Z,11.30
2022-09-17T05:38:18.457Z,11.30
2022-09-17T05:40:48.986Z,11.40
2022-09-17T05:43:17.369Z,11.50
2022-09-17T05:45:46.654Z,11.50
2022-09-17T05:48:16.369Z,11.60
2022-09-17T05:50:44.334Z,11.60
2022-09-17T05:53:14.558Z,11.70
2022-09-17T05:55:42.583Z,11.70
2022-09-17T05:58:13.262Z,11.90
2022-09-17T06:00:42.636Z,12.00
2022-09-17T06:03:12.695Z,12.30
2022-09-17T06:05:41.160Z,12.60
2022-09-17T06:08:09.349Z,13.10
2022-09-17T06:10:38.503Z,13.20
2022-09-17T06:13:07.104Z,13.50
2022-09-17T06:15:36.445Z,13.70
2022-09-17T06:18:04.512Z,13.60
2022-09-17T06:20:33.630Z,13.60
2022-09-17T06:23:01.622Z,13.90
2022-09-17T06:25:29.661Z,14.20
2022-09-17T06:27:57.650Z,14.30
2022-09-17T06:30:25.744Z,14.40
2022-09-17T06:32:55.119Z,14.30
2022-09-17T06:35:23.097Z,14.30
2022-09-17T06:37:51.541Z,14.30
2022-09-17T06:40:19.569Z,14.20
2022-09-17T06:42:47.600Z,14.00
2022-09-17T06:45:16.849Z,14.00
2022-09-17T06:47:45.161Z,13.90
2022-09-17T06:50:14.632Z,13.90
2022-09-17T06:52:52.338Z,13.90
2022-09-17T06:55:20.782Z,13.90
2022-09-17T06:57:48.774Z,13.90
2022-09-17T07:00:17.125Z,14.00
2022-09-17T07:02:45.121Z,13.90
2022-09-17T07:05:14.488Z,13.90
2022-09-17T07:07:42.526Z,13.90
2022-09-17T07:10:10.631Z,13.90
2022-09-17T07:12:46.610Z,13.90
2022-09-17T07:15:17.558Z,13.90
2022-09-17T07:17:45.577Z,14.00
2022-09-17T07:20:15.706Z,14.10
2022-09-17T07:22:43.867Z,14.30
2022-09-17T07:25:12.565Z,14.40
2022-09-17T07:27:40.702Z,14.40
2022-09-17T07:30:10.069Z,14.60
2022-09-17T07:32:38.119Z,14.90
2022-09-17T07:35:06.976Z,15.30
2022-09-17T07:37:36.368Z,15.60
2022-09-17T07:40:05.391Z,15.70
2022-09-17T07:42:34.065Z,15.80
2022-09-17T07:45:02.507Z,15.90
2022-09-17T07:47:30.673Z,16.00
2022-09-17T07:49:58.684Z,16.20
2022-09-17T07:52:27.493Z,16.20
2022-09-17T07:54:56.865Z,16.30
2022-09-17T07:57:24.929Z,16.10
2022-09-17T07:59:53.222Z,15.90
2022-09-17T08:02:24.163Z,15.80
2022-09-17T08:04:53.117Z,15.70
2022-09-17T08:07:21.138Z,15.70
2022-09-17T08:09:49.725Z,15.60
2022-09-17T08:12:27.550Z,15.60
2022-09-17T08:14:55.859Z,15.50
2022-09-17T08:17:23.873Z,15.50
2022-09-17T08:19:51.883Z,15.40
2022-09-17T08:22:20.205Z,15.30
2022-09-17T08:24:48.336Z,15.30
2022-09-17T08:27:16.354Z,15.20
2022-09-17T08:29:45.718Z,15.20
2022-09-17T08:32:13.718Z,15.10
2022-09-17T08:34:41.774Z,15.10
2022-09-17T08:37:09.757Z,15.10
2022-09-17T08:39:39.117Z,15.10
2022-09-17T08:42:15.903Z,15.10
2022-09-17T08:44:49.877Z,15.30
2022-09-17T08:47:26.500Z,15.40
2022-09-17T08:49:57.696Z,15.40
2022-09-17T08:52:58.184Z,15.30
2022-09-17T08:55:35.128Z,15.40
2022-09-17T08:58:21.380Z,15.50
2022-09-17T09:00:58.986Z,15.70
2022-09-17T09:03:35.324Z,16.10
2022-09-17T09:06:07.253Z,16.50
2022-09-17T09:08:42.936Z,16.60
2022-09-17T09:11:17.238Z,17.00
2022-09-17T09:13:48.761Z,17.10
2022-09-17T09:16:21.061Z,17.00
2022-09-17T09:18:52.489Z,16.80
2022-09-17T09:21:28.325Z,16.80
2022-09-17T09:23:59.011Z,16.90
2022-09-17T09:26:42.052Z,17.10
2022-09-17T09:29:20.928Z,17.10
2022-09-17T09:32:12.499Z,17.10
2022-09-17T09:34:57.167Z,17.10
2022-09-17T09:37:29.123Z,17.10
2022-09-17T09:40:06.313Z,17.00
2022-09-17T09:42:36.833Z,17.10
2022-09-17T09:45:15.476Z,17.30
2022-09-17T09:47:57.722Z,17.40
2022-09-17T09:51:04.661Z,17.40
2022-09-17T09:53:37.328Z,17.30
2022-09-17T09:56:28.458Z,17.40
2022-09-17T09:58:56.482Z,17.60
2022-09-17T10:01:28.413Z,17.70
2022-09-17T10:03:58.937Z,17.70
2022-09-17T10:06:32.017Z,17.90
2022-09-17T10:09:13.935Z,18.20
2022-09-17T10:11:42.422Z,18.50
2022-09-17T10:14:23.224Z,19.00
2022-09-17T10:16:53.956Z,19.30
2022-09-17T10:19:25.646Z,19.60
2022-09-17T10:21:53.899Z,19.90
2022-09-17T10:24:26.714Z,20.10
2022-09-17T10:27:02.594Z,20.20
2022-09-17T10:29:31.344Z,20.30
2022-09-17T10:31:59.916Z,20.20
2022-09-17T10:34:33.647Z,20.00
2022-09-17T10:37:01.763Z,19.90
2022-09-17T10:39:36.492Z,19.90
2022-09-17T10:42:06.740Z,19.90
2022-09-17T10:44:36.545Z,19.80
2022-09-17T10:47:07.292Z,19.60
2022-09-17T10:49:41.141Z,19.40
2022-09-17T10:52:26.153Z,19.30
2022-09-17T10:55:19.427Z,19.20
2022-09-17T10:58:09.933Z,19.00
2022-09-17T11:00:46.540Z,18.70
2022-09-17T11:03:53.069Z,18.60
2022-09-17T11:06:44.599Z,18.40
2022-09-17T11:09:26.950Z,18.30
2022-09-17T11:12:10.437Z,18.00
2022-09-17T11:14:54.078Z,17.90
2022-09-17T11:17:44.261Z,17.80
2022-09-17T11:20:23.978Z,17.60
2022-09-17T11:23:01.512Z,17.50
2022-09-17T11:25:39.850Z,17.30
2022-09-17T11:28:19.746Z,17.20
2022-09-17T11:30:57.560Z,17.20
2022-09-17T11:34:10.003Z,17.10
2022-09-17T11:36:46.781Z,17.00
2022-09-17T11:39:20.194Z,17.00
2022-09-17T11:41:52.313Z,16.90
2022-09-17T11:44:27.402Z,16.90
2022-09-17T11:47:00.337Z,16.90
2022-09-17T11:49:35.426Z,16.80
2022-09-17T11:52:07.346Z,16.80
2022-09-17T11:54:41.905Z,16.80
2022-09-17T11:57:16.117Z,16.80
2022-09-17T11:59:47.967Z,16.80
2022-09-17T12:02:24.502Z,16.70
2022-09-17T12:04:59.861Z,16.70
2022-09-17T12:07:36.916Z,16.70
2022-09-17T12:10:21.637Z,16.80
2022-09-17T12:12:55.319Z,16.70
2022-09-17T12:15:25.652Z,16.60
2022-09-17T12:18:30.438Z,16.60
2022-09-17T12:20:56.040Z,16.60
2022-09-17T12:23:34.897Z,16.50
2022-09-17T12:26:17.325Z,16.40
2022-09-17T12:28:52.348Z,16.30
2022-09-17T12:31:30.888Z,16.30
2022-09-17T12:34:05.676Z,16.30
2022-09-17T12:36:51.843Z,16.20
2022-09-17T12:39:49.980Z,16.20
2022-09-17T12:42:31.281Z,16.10
2022-09-17T12:45:18.920Z,16.10
2022-09-17T12:48:14.853Z,16.10
2022-09-17T12:50:59.116Z,16.10
2022-09-17T12:53:31.786Z,16.00
2022-09-17T12:56:22.606Z,16.10
2022-09-17T12:59:05.256Z,16.10
2022-09-17T13:01:38.164Z,16.10
2022-09-17T13:04:18.690Z,16.10
2022-09-17T13:07:33.164Z,16.10
2022-09-17T13:10:40.748Z,16.10
2022-09-17T13:13:30.875Z,16.10
2022-09-17T13:16:13.439Z,16.10
2022-09-17T13:19:14.636Z,16.10
2022-09-17T13:21:45.606Z,16.10
2022-09-17T13:24:18.036Z,16.10
2022-09-17T13:26:48.019Z,16.20
2022-09-17T13:30:06.631Z,16.10
2022-09-17T13:32:52.372Z,16.20
2022-09-17T13:35:49.016Z,16.20
2022-09-17T13:38:21.657Z,16.60
2022-09-17T13:40:52.178Z,17.00
2022-09-17T13:43:26.515Z,16.80
2022-09-17T13:46:12.283Z,16.70
2022-09-17T13:48:52.321Z,16.50
2022-09-17T13:51:47.391Z,16.50
2022-09-17T13:54:16.853Z,16.30
2022-09-17T13:56:47.049Z,16.30
2022-09-17T13:59:18.804Z,16.20
2022-09-17T14:02:00.701Z,16.10
2022-09-17T14:04:51.293Z,16.10
2022-09-17T14:07:36.926Z,16.10
2022-09-17T14:10:37.562Z,16.10
2022-09-17T14:13:44.945Z,16.10
2022-09-17T14:16:48.565Z,16.00
2022-09-17T14:19:25.329Z,16.00
2022-09-17T14:22:04.082Z,16.10
2022-09-17T14:24:37.538Z,16.10
2022-09-17T14:27:21.919Z,16.10
2022-09-17T14:30:13.330Z,16.10
2022-09-17T14:32:53.816Z,16.10
2022-09-17T14:35:25.887Z,16.10
2022-09-17T14:37:58.906Z,16.10
2022-09-17T14:40:28.449Z,16.10
2022-09-17T14:42:59.329Z,16.00
2022-09-17T14:45:30.364Z,16.00
2022-09-17T14:48:31.840Z,16.00
2022-09-17T14:51:36.045Z,16.00
2022-09-17T14:54:27.212Z,16.00
2022-09-17T14:57:00.828Z,16.00
2022-09-17T14:59:42.842Z,16.00
2022-09-17T15:02:36.820Z,15.90
2022-09-17T15:05:22.013Z,15.90
2022-09-17T15:07:50.626Z,15.90
2022-09-17T15:10:22.670Z,15.90
2022-09-17T15:12:51.849Z,15.80
2022-09-17T15:15:22.907Z,15.80
2022-09-17T15:17:52.425Z,15.70
2022-09-17T15:20:22.865Z,15.70
2022-09-17T15:22:57.869Z,15.60
2022-09-17T15:25:31.053Z,15.60
2022-09-17T15:28:01.001Z,15.60
2022-09-17T15:30:29.650Z,15.50
2022-09-17T15:32:59.939Z,15.50
2022-09-17T15:35:32.349Z,15.40
2022-09-17T15:40:54.818Z,15.40
2022-09-17T15:43:27.302Z,15.40
2022-09-17T15:45:55.859Z,15.50
2022-09-17T15:48:37.430Z,15.60
2022-09-17T15:51:07.956Z,15.60
2022-09-17T15:53:36.745Z,15.40
2022-09-17T15:56:09.443Z,15.40
2022-09-17T15:58:51.025Z,15.40
2022-09-17T16:01:54.913Z,15.30
2022-09-17T16:04:27.973Z,15.30
2022-09-17T16:06:58.655Z,15.20
2022-09-17T16:09:45.833Z,15.20
2022-09-17T16:12:18.049Z,15.10
2022-09-17T16:14:47.412Z,15.10
2022-09-17T16:17:27.967Z,15.00
2022-09-17T16:19:56.791Z,15.00
2022-09-17T16:22:26.270Z,14.90
2022-09-17T16:24:54.317Z,14.80
2022-09-17T16:27:27.431Z,14.70
2022-09-17T16:30:02.653Z,14.60
2022-09-17T16:32:32.861Z,14.60
2022-09-17T16:35:01.043Z,14.60
2022-09-17T16:37:29.031Z,14.60
2022-09-17T16:39:57.338Z,14.50
2022-09-17T16:42:26.816Z,14.50
2022-09-17T16:44:54.810Z,14.40
2022-09-17T16:47:22.799Z,14.40
2022-09-17T16:49:50.808Z,14.40
2022-09-17T16:52:18.815Z,14.30
2022-09-17T16:54:47.075Z,14.30
2022-09-17T16:57:15.079Z,14.30
2022-09-17T16:59:44.532Z,14.30
2022-09-17T17:02:14.190Z,14.30
2022-09-17T17:04:42.298Z,14.30
2022-09-17T17:07:10.281Z,14.30
2022-09-17T17:09:38.597Z,14.30
2022-09-17T17:12:06.881Z,14.20
2022-09-17T17:14:35.005Z,14.20
2022-09-17T17:17:04.806Z,14.20
2022-09-17T17:19:34.755Z,14.20
2022-09-17T17:22:04.341Z,14.10
2022-09-17T17:24:32.338Z,14.10
2022-09-17T17:27:00.356Z,14.10
2022-09-17T17:29:28.362Z,14.00
2022-09-17T17:31:56.359Z,14.00
2022-09-17T17:34:25.719Z,13.90
2022-09-17T17:36:53.998Z,13.90
2022-09-17T17:39:21.974Z,13.90
2022-09-17T17:41:51.933Z,13.90
2022-09-17T17:44:20.008Z,13.90
2022-09-17T17:46:49.227Z,13.80
2022-09-17T17:49:17.242Z,13.80
2022-09-17T17:51:48.713Z,13.80
2022-09-17T17:54:17.517Z,13.80
2022-09-17T17:56:45.524Z,13.70
2022-09-17T17:59:13.523Z,13.70
2022-09-17T18:01:41.655Z,13.70
2022-09-17T18:04:09.852Z,13.70
2022-09-17T18:06:37.824Z,13.60
2022-09-17T18:09:07.512Z,13.60
2022-09-17T18:11:35.900Z,13.60
2022-09-17T18:14:05.253Z,13.60
2022-09-17T18:16:33.340Z,13.60
2022-09-17T18:19:01.856Z,13.60
2022-09-17T18:21:29.916Z,13.60
2022-09-17T18:23:57.883Z,13.60
2022-09-17T18:26:29.224Z,13.60
2022-09-17T18:28:57.551Z,13.50
2022-09-17T18:31:27.749Z,13.50
2022-09-17T18:33:58.196Z,13.50
2022-09-17T18:36:26.711Z,13.50
2022-09-17T18:38:57.038Z,13.50
2022-09-17T18:41:26.883Z,13.40
2022-09-17T18:43:54.847Z,13.40
2022-09-17T18:46:22.880Z,13.50
2022-09-17T18:48:53.131Z,13.40
2022-09-17T18:51:21.441Z,13.40
2022-09-17T18:53:51.775Z,13.40
2022-09-17T18:56:21.450Z,13.40
2022-09-17T18:58:55.163Z,13.40
2022-09-17T19:01:25.671Z,13.30
2022-09-17T19:03:54.545Z,13.30
2022-09-17T19:06:23.041Z,13.30
2022-09-17T19:08:51.107Z,13.30
2022-09-17T19:11:19.558Z,13.30
2022-09-17T19:13:50.723Z,13.20
2022-09-17T19:16:18.955Z,13.20
2022-09-17T19:18:46.999Z,13.20
2022-09-17T19:21:16.593Z,13.20
2022-09-17T19:23:46.605Z,13.10
2022-09-17T19:26:16.713Z,13.10
2022-09-17T19:28:45.090Z,13.10
2022-09-17T19:31:16.937Z,13.10
2022-09-17T19:33:46.601Z,13.10
2022-09-17T19:36:17.091Z,13.00
2022-09-17T19:38:46.093Z,13.00
2022-09-17T19:41:16.823Z,13.00
2022-09-17T19:43:46.152Z,13.00
2022-09-17T19:46:16.877Z,12.90
2022-09-17T19:48:45.581Z,12.90
2022-09-17T19:51:17.929Z,12.90
2022-09-17T19:53:46.317Z,12.80
2022-09-17T19:56:15.996Z,12.80
2022-09-17T19:58:44.299Z,12.80
2022-09-17T20:01:12.652Z,12.80
2022-09-17T20:03:43.266Z,12.80
2022-09-17T20:06:18.075Z,12.80
2022-09-17T20:08:59.468Z,12.70
2022-09-17T20:11:37.488Z,12.70
2022-09-17T20:14:09.570Z,12.70
2022-09-17T20:16:41.386Z,12.70
2022-09-17T20:19:14.977Z,12.70
2022-09-17T20:21:43.197Z,12.70
2022-09-17T20:24:11.598Z,12.60
2022-09-17T20:26:40.382Z,12.60
2022-09-17T20:29:08.381Z,12.60
2022-09-17T20:31:36.486Z,12.60
2022-09-17T20:34:05.327Z,12.50
2022-09-17T20:36:36.008Z,12.50
2022-09-17T20:39:17.906Z,12.50
2022-09-17T20:41:49.345Z,12.50
2022-09-17T20:44:17.741Z,12.60
2022-09-17T20:46:45.826Z,12.50
2022-09-17T20:49:13.834Z,12.60
2022-09-17T20:51:43.176Z,12.50
2022-09-17T20:54:11.994Z,12.50
2022-09-17T20:56:40.002Z,12.50
2022-09-17T20:59:13.354Z,12.50
2022-09-17T21:01:44.617Z,12.50
2022-09-17T21:04:16.827Z,12.50
2022-09-17T21:06:46.707Z,12.50
2022-09-17T21:09:16.712Z,12.50
2022-09-17T21:11:45.685Z,12.40
2022-09-17T21:14:15.539Z,12.40
2022-09-17T21:16:43.867Z,12.40
2022-09-17T21:19:16.377Z,12.40
2022-09-17T21:21:46.151Z,12.40
2022-09-17T21:24:14.184Z,12.40
2022-09-17T21:26:42.498Z,12.40
2022-09-17T21:29:13.022Z,12.40
2022-09-17T21:31:44.565Z,12.40
2022-09-17T21:34:14.318Z,12.40
2022-09-17T21:36:44.546Z,12.40
2022-09-17T21:39:15.758Z,12.30
2022-09-17T21:41:44.175Z,12.30
2022-09-17T21:44:13.586Z,12.30
2022-09-17T21:46:42.899Z,12.30
2022-09-17T21:49:11.489Z,12.30
2022-09-17T21:51:40.726Z,12.40
2022-09-17T21:54:12.884Z,12.30
2022-09-17T21:56:42.448Z,12.30
2022-09-17T21:59:12.545Z,12.30
2022-09-17T22:01:43.483Z,12.30
2022-09-17T22:04:13.584Z,12.30
2022-09-17T22:06:42.255Z,12.30
2022-09-17T22:09:16.041Z,12.30
2022-09-17T22:11:45.841Z,12.30
2022-09-17T22:14:17.889Z,12.30
2022-09-17T22:16:47.453Z,12.30
2022-09-17T22:19:17.921Z,12.30
2022-09-17T22:21:47.843Z,12.30
2022-09-17T22:24:17.190Z,12.30
2022-09-17T22:26:50.775Z,12.30
2022-09-17T22:29:23.827Z,12.30
2022-09-17T22:31:51.901Z,12.30
2022-09-17T22:34:22.301Z,12.30
2022-09-17T22:36:50.756Z,12.20
2022-09-17T22:39:20.877Z,12.30
2022-09-17T22:41:50.506Z,12.20
2022-09-17T22:44:20.248Z,12.20
2022-09-17T22:46:49.968Z,12.20
2022-09-17T22:49:19.040Z,12.20
2022-09-17T22:51:47.608Z,12.20
2022-09-17T22:54:17.829Z,12.20
2022-09-17T22:56:46.708Z,12.20
2022-09-17T22:59:16.326Z,12.20
2022-09-17T23:01:44.458Z,12.20
2022-09-17T23:04:12.609Z,12.20
2022-09-17T23:06:42.445Z,12.20
2022-09-17T23:09:12.303Z,12.20
2022-09-17T23:11:40.726Z,12.20
2022-09-17T23:14:11.983Z,12.20
2022-09-17T23:16:43.518Z,12.20
2022-09-17T23:19:11.987Z,12.20
2022-09-17T23:21:40.974Z,12.20
2022-09-17T23:24:09.661Z,12.20
2022-09-17T23:26:37.673Z,12.20
2022-09-17T23:29:06.008Z,12.20
2022-09-17T23:31:35.667Z,12.20
2022-09-17T23:34:06.203Z,12.20
2022-09-17T23:36:36.024Z,12.20
2022-09-17T23:39:06.240Z,12.20
2022-09-17T23:41:36.269Z,12.10
2022-09-17T23:44:09.412Z,12.10
2022-09-17T23:46:40.364Z,12.10
2022-09-17T23:49:12.253Z,12.10
2022-09-17T23:51:40.428Z,12.10
2022-09-17T23:54:08.596Z,12.10
2022-09-17T23:56:36.830Z,12.10
2022-09-17T23:59:07.259Z,12.10
